sensor_id;sensor_type;location;lat;lon;timestamp;P1;durP1;ratioP1;P2;durP2;ratioP2
61096;SDS011;46977;50.936;6.908;2022-12-07T00:02:56;27.40;;;15.07;;
61096;SDS011;46977;50.936;6.908;2022-12-07T00:05:59;29.35;;;15.57;;
61096;SDS011;46977;50.936;6.908;2022-12-07T00:09:01;33.42;;;16.40;;
61096;SDS011;46977;50.936;6.908;2022-12-07T00:12:05;27.98;;;14.73;;
61096;SDS011;46977;50.936;6.908;2022-12-07T00:15:08;29.27;;;14.25;;
61096;SDS011;46977;50.936;6.908;2022-12-07T00:18:11;24.88;;;14.57;;
61096;SDS011;46977;50.936;6.908;2022-12-07T00:21:16;27.65;;;14.52;;
61096;SDS011;46977;50.936;6.908;2022-12-07T00:24:19;27.23;;;14.70;;
61096;SDS011;46977;50.936;6.908;2022-12-07T00:27:24;25.55;;;14.65;;
61096;SDS011;46977;50.936;6.908;2022-12-07T00:30:26;30.60;;;15.05;;
61096;SDS011;46977;50.936;6.908;2022-12-07T00:33:29;28.80;;;15.35;;
61096;SDS011;46977;50.936;6.908;2022-12-07T00:36:33;24.73;;;14.15;;
61096;SDS011;46977;50.936;6.908;2022-12-07T00:39:36;35.50;;;14.77;;
61096;SDS011;46977;50.936;6.908;2022-12-07T00:42:40;29.67;;;15.20;;
61096;SDS011;46977;50.936;6.908;2022-12-07T00:45:42;28.50;;;15.02;;
61096;SDS011;46977;50.936;6.908;2022-12-07T00:48:44;28.52;;;15.40;;
61096;SDS011;46977;50.936;6.908;2022-12-07T00:51:47;27.13;;;14.98;;
61096;SDS011;46977;50.936;6.908;2022-12-07T00:54:50;27.80;;;15.10;;
61096;SDS011;46977;50.936;6.908;2022-12-07T00:57:53;30.48;;;15.32;;
61096;SDS011;46977;50.936;6.908;2022-12-07T01:00:56;30.50;;;15.65;;
61096;SDS011;46977;50.936;6.908;2022-12-07T01:04:02;22.90;;;14.77;;
61096;SDS011;46977;50.936;6.908;2022-12-07T01:07:04;29.52;;;16.48;;
61096;SDS011;46977;50.936;6.908;2022-12-07T01:10:07;31.67;;;17.30;;
61096;SDS011;46977;50.936;6.908;2022-12-07T01:13:11;31.02;;;15.95;;
61096;SDS011;46977;50.936;6.908;2022-12-07T01:16:14;27.83;;;15.52;;
61096;SDS011;46977;50.936;6.908;2022-12-07T01:19:17;30.70;;;17.15;;
61096;SDS011;46977;50.936;6.908;2022-12-07T01:22:20;30.25;;;16.23;;
61096;SDS011;46977;50.936;6.908;2022-12-07T01:25:22;28.17;;;15.95;;
61096;SDS011;46977;50.936;6.908;2022-12-07T01:28:26;31.45;;;17.33;;
61096;SDS011;46977;50.936;6.908;2022-12-07T01:31:28;27.10;;;15.75;;
61096;SDS011;46977;50.936;6.908;2022-12-07T01:34:31;30.80;;;17.63;;
61096;SDS011;46977;50.936;6.908;2022-12-07T01:37:34;28.92;;;16.30;;
61096;SDS011;46977;50.936;6.908;2022-12-07T01:40:37;28.02;;;15.90;;
61096;SDS011;46977;50.936;6.908;2022-12-07T01:47:16;29.50;;;16.23;;
61096;SDS011;46977;50.936;6.908;2022-12-07T01:50:18;29.70;;;17.15;;
61096;SDS011;46977;50.936;6.908;2022-12-07T01:53:22;31.98;;;16.02;;
61096;SDS011;46977;50.936;6.908;2022-12-07T01:56:27;28.40;;;16.65;;
61096;SDS011;46977;50.936;6.908;2022-12-07T01:59:30;28.58;;;15.55;;
61096;SDS011;46977;50.936;6.908;2022-12-07T02:02:34;26.33;;;15.60;;
61096;SDS011;46977;50.936;6.908;2022-12-07T02:05:40;28.20;;;16.25;;
61096;SDS011;46977;50.936;6.908;2022-12-07T02:08:43;29.40;;;16.45;;
61096;SDS011;46977;50.936;6.908;2022-12-07T02:11:46;28.98;;;15.50;;
61096;SDS011;46977;50.936;6.908;2022-12-07T02:14:50;25.83;;;15.38;;
61096;SDS011;46977;50.936;6.908;2022-12-07T02:17:54;27.90;;;16.38;;
61096;SDS011;46977;50.936;6.908;2022-12-07T02:21:00;28.48;;;16.13;;
61096;SDS011;46977;50.936;6.908;2022-12-07T02:24:14;26.60;;;14.73;;
61096;SDS011;46977;50.936;6.908;2022-12-07T02:27:28;27.90;;;15.10;;
61096;SDS011;46977;50.936;6.908;2022-12-07T02:30:39;27.08;;;15.02;;
61096;SDS011;46977;50.936;6.908;2022-12-07T02:33:45;26.83;;;15.70;;
61096;SDS011;46977;50.936;6.908;2022-12-07T02:36:52;29.55;;;15.00;;
61096;SDS011;46977;50.936;6.908;2022-12-07T02:39:59;27.83;;;16.02;;
61096;SDS011;46977;50.936;6.908;2022-12-07T02:43:07;30.75;;;15.75;;
61096;SDS011;46977;50.936;6.908;2022-12-07T02:46:14;29.58;;;15.55;;
61096;SDS011;46977;50.936;6.908;2022-12-07T02:49:19;30.25;;;16.42;;
61096;SDS011;46977;50.936;6.908;2022-12-07T02:52:23;26.23;;;15.85;;
61096;SDS011;46977;50.936;6.908;2022-12-07T02:55:27;27.85;;;15.13;;
61096;SDS011;46977;50.936;6.908;2022-12-07T02:58:32;34.55;;;19.05;;
61096;SDS011;46977;50.936;6.908;2022-12-07T03:01:46;28.70;;;16.00;;
61096;SDS011;46977;50.936;6.908;2022-12-07T03:04:55;30.77;;;15.98;;
61096;SDS011;46977;50.936;6.908;2022-12-07T03:17:35;29.63;;;16.90;;
61096;SDS011;46977;50.936;6.908;2022-12-07T03:20:39;30.95;;;16.45;;
61096;SDS011;46977;50.936;6.908;2022-12-07T03:23:47;32.95;;;18.05;;
61096;SDS011;46977;50.936;6.908;2022-12-07T03:26:52;31.38;;;16.83;;
61096;SDS011;46977;50.936;6.908;2022-12-07T03:29:58;28.38;;;15.77;;
61096;SDS011;46977;50.936;6.908;2022-12-07T03:33:06;31.38;;;16.35;;
61096;SDS011;46977;50.936;6.908;2022-12-07T03:36:12;32.45;;;15.65;;
61096;SDS011;46977;50.936;6.908;2022-12-07T03:39:19;32.67;;;17.13;;
61096;SDS011;46977;50.936;6.908;2022-12-07T03:42:24;30.00;;;17.52;;
61096;SDS011;46977;50.936;6.908;2022-12-07T03:45:28;34.03;;;17.85;;
61096;SDS011;46977;50.936;6.908;2022-12-07T03:48:36;32.05;;;17.95;;
61096;SDS011;46977;50.936;6.908;2022-12-07T03:51:43;31.35;;;16.48;;
61096;SDS011;46977;50.936;6.908;2022-12-07T03:54:49;35.15;;;18.35;;
61096;SDS011;46977;50.936;6.908;2022-12-07T03:57:56;28.50;;;16.15;;
61096;SDS011;46977;50.936;6.908;2022-12-07T04:01:02;31.48;;;17.80;;
61096;SDS011;46977;50.936;6.908;2022-12-07T04:04:06;32.00;;;16.63;;
61096;SDS011;46977;50.936;6.908;2022-12-07T04:07:08;29.88;;;16.02;;
61096;SDS011;46977;50.936;6.908;2022-12-07T04:10:11;34.75;;;16.75;;
61096;SDS011;46977;50.936;6.908;2022-12-07T04:13:14;29.23;;;15.48;;
61096;SDS011;46977;50.936;6.908;2022-12-07T04:16:17;33.25;;;16.73;;
61096;SDS011;46977;50.936;6.908;2022-12-07T04:19:22;37.13;;;17.52;;
61096;SDS011;46977;50.936;6.908;2022-12-07T04:22:26;33.95;;;17.15;;
61096;SDS011;46977;50.936;6.908;2022-12-07T04:25:28;27.92;;;15.88;;
61096;SDS011;46977;50.936;6.908;2022-12-07T04:28:30;31.42;;;17.58;;
61096;SDS011;46977;50.936;6.908;2022-12-07T04:31:33;35.53;;;17.73;;
61096;SDS011;46977;50.936;6.908;2022-12-07T04:34:36;35.13;;;17.33;;
61096;SDS011;46977;50.936;6.908;2022-12-07T04:37:39;33.03;;;17.50;;
61096;SDS011;46977;50.936;6.908;2022-12-07T04:40:41;32.40;;;16.27;;
61096;SDS011;46977;50.936;6.908;2022-12-07T04:43:44;36.65;;;17.17;;
61096;SDS011;46977;50.936;6.908;2022-12-07T04:46:46;32.90;;;17.33;;
61096;SDS011;46977;50.936;6.908;2022-12-07T04:49:50;29.95;;;15.63;;
61096;SDS011;46977;50.936;6.908;2022-12-07T04:52:52;31.92;;;17.58;;
61096;SDS011;46977;50.936;6.908;2022-12-07T04:55:55;31.98;;;16.33;;
61096;SDS011;46977;50.936;6.908;2022-12-07T04:58:57;30.38;;;16.05;;
61096;SDS011;46977;50.936;6.908;2022-12-07T05:01:59;34.30;;;16.63;;
61096;SDS011;46977;50.936;6.908;2022-12-07T05:05:05;33.03;;;17.52;;
61096;SDS011;46977;50.936;6.908;2022-12-07T05:08:08;33.10;;;17.83;;
61096;SDS011;46977;50.936;6.908;2022-12-07T05:11:10;28.90;;;17.17;;
61096;SDS011;46977;50.936;6.908;2022-12-07T05:14:35;33.22;;;16.38;;
61096;SDS011;46977;50.936;6.908;2022-12-07T05:17:38;28.80;;;17.00;;
61096;SDS011;46977;50.936;6.908;2022-12-07T05:20:42;30.50;;;16.17;;
61096;SDS011;46977;50.936;6.908;2022-12-07T05:23:44;31.75;;;16.48;;
61096;SDS011;46977;50.936;6.908;2022-12-07T05:26:46;30.73;;;17.15;;
61096;SDS011;46977;50.936;6.908;2022-12-07T05:29:49;28.55;;;15.90;;
61096;SDS011;46977;50.936;6.908;2022-12-07T05:32:51;35.00;;;17.27;;
61096;SDS011;46977;50.936;6.908;2022-12-07T05:35:55;31.70;;;16.60;;
61096;SDS011;46977;50.936;6.908;2022-12-07T05:38:58;31.70;;;16.45;;
61096;SDS011;46977;50.936;6.908;2022-12-07T05:42:00;30.95;;;15.95;;
61096;SDS011;46977;50.936;6.908;2022-12-07T05:45:16;37.10;;;16.65;;
61096;SDS011;46977;50.936;6.908;2022-12-07T05:48:20;27.02;;;15.73;;
61096;SDS011;46977;50.936;6.908;2022-12-07T05:51:24;32.80;;;16.00;;
61096;SDS011;46977;50.936;6.908;2022-12-07T05:54:26;34.28;;;16.17;;
61096;SDS011;46977;50.936;6.908;2022-12-07T05:57:29;35.53;;;18.23;;
61096;SDS011;46977;50.936;6.908;2022-12-07T06:00:31;34.20;;;17.08;;
61096;SDS011;46977;50.936;6.908;2022-12-07T06:03:37;29.50;;;15.85;;
61096;SDS011;46977;50.936;6.908;2022-12-07T06:06:41;30.50;;;16.95;;
61096;SDS011;46977;50.936;6.908;2022-12-07T06:09:43;31.33;;;15.15;;
61096;SDS011;46977;50.936;6.908;2022-12-07T06:12:45;35.58;;;18.15;;
61096;SDS011;46977;50.936;6.908;2022-12-07T06:15:48;36.83;;;17.85;;
61096;SDS011;46977;50.936;6.908;2022-12-07T06:18:52;31.13;;;16.02;;
61096;SDS011;46977;50.936;6.908;2022-12-07T06:21:59;31.48;;;17.92;;
61096;SDS011;46977;50.936;6.908;2022-12-07T06:25:02;35.53;;;18.30;;
61096;SDS011;46977;50.936;6.908;2022-12-07T06:28:09;35.47;;;18.55;;
61096;SDS011;46977;50.936;6.908;2022-12-07T06:31:12;44.78;;;21.67;;
61096;SDS011;46977;50.936;6.908;2022-12-07T06:34:16;36.13;;;18.20;;
61096;SDS011;46977;50.936;6.908;2022-12-07T06:37:20;36.38;;;17.55;;
61096;SDS011;46977;50.936;6.908;2022-12-07T06:40:25;35.80;;;18.35;;
61096;SDS011;46977;50.936;6.908;2022-12-07T06:43:30;36.13;;;19.95;;
61096;SDS011;46977;50.936;6.908;2022-12-07T06:46:32;35.58;;;18.88;;
61096;SDS011;46977;50.936;6.908;2022-12-07T06:49:37;34.50;;;16.83;;
61096;SDS011;46977;50.936;6.908;2022-12-07T06:52:41;31.88;;;16.00;;
61096;SDS011;46977;50.936;6.908;2022-12-07T06:55:43;33.75;;;18.77;;
61096;SDS011;46977;50.936;6.908;2022-12-07T06:58:48;35.13;;;16.88;;
61096;SDS011;46977;50.936;6.908;2022-12-07T07:01:50;30.48;;;17.35;;
61096;SDS011;46977;50.936;6.908;2022-12-07T07:04:53;35.70;;;17.67;;
61096;SDS011;46977;50.936;6.908;2022-12-07T07:07:56;31.15;;;17.35;;
61096;SDS011;46977;50.936;6.908;2022-12-07T07:11:19;33.80;;;16.77;;
61096;SDS011;46977;50.936;6.908;2022-12-07T07:14:21;30.25;;;17.60;;
61096;SDS011;46977;50.936;6.908;2022-12-07T07:17:24;33.55;;;17.48;;
61096;SDS011;46977;50.936;6.908;2022-12-07T07:20:27;34.17;;;17.27;;
61096;SDS011;46977;50.936;6.908;2022-12-07T07:23:31;36.65;;;17.13;;
61096;SDS011;46977;50.936;6.908;2022-12-07T07:26:33;35.90;;;17.83;;
61096;SDS011;46977;50.936;6.908;2022-12-07T07:29:36;30.52;;;16.33;;
61096;SDS011;46977;50.936;6.908;2022-12-07T07:32:40;34.47;;;17.98;;
61096;SDS011;46977;50.936;6.908;2022-12-07T07:35:42;30.98;;;15.73;;
61096;SDS011;46977;50.936;6.908;2022-12-07T07:38:49;30.75;;;16.33;;
61096;SDS011;46977;50.936;6.908;2022-12-07T07:41:52;31.40;;;16.60;;
61096;SDS011;46977;50.936;6.908;2022-12-07T07:45:00;30.75;;;16.92;;
61096;SDS011;46977;50.936;6.908;2022-12-07T07:48:07;29.27;;;17.02;;
61096;SDS011;46977;50.936;6.908;2022-12-07T07:51:10;32.63;;;18.23;;
61096;SDS011;46977;50.936;6.908;2022-12-07T07:54:15;36.88;;;17.25;;
61096;SDS011;46977;50.936;6.908;2022-12-07T07:57:18;30.45;;;17.25;;
61096;SDS011;46977;50.936;6.908;2022-12-07T08:00:21;34.90;;;18.00;;
61096;SDS011;46977;50.936;6.908;2022-12-07T08:03:24;34.75;;;18.67;;
61096;SDS011;46977;50.936;6.908;2022-12-07T08:06:27;27.90;;;16.50;;
61096;SDS011;46977;50.936;6.908;2022-12-07T08:09:37;37.13;;;17.98;;
61096;SDS011;46977;50.936;6.908;2022-12-07T08:12:40;30.95;;;17.63;;
61096;SDS011;46977;50.936;6.908;2022-12-07T08:16:03;27.45;;;15.77;;
61096;SDS011;46977;50.936;6.908;2022-12-07T08:19:07;30.48;;;17.17;;
61096;SDS011;46977;50.936;6.908;2022-12-07T08:22:09;30.80;;;16.20;;
61096;SDS011;46977;50.936;6.908;2022-12-07T08:25:18;30.80;;;15.32;;
61096;SDS011;46977;50.936;6.908;2022-12-07T08:28:27;30.00;;;16.25;;
61096;SDS011;46977;50.936;6.908;2022-12-07T08:31:30;29.45;;;15.30;;
61096;SDS011;46977;50.936;6.908;2022-12-07T08:34:32;28.45;;;15.68;;
61096;SDS011;46977;50.936;6.908;2022-12-07T08:37:39;27.63;;;13.85;;
61096;SDS011;46977;50.936;6.908;2022-12-07T08:40:44;21.13;;;12.98;;
61096;SDS011;46977;50.936;6.908;2022-12-07T08:43:47;22.25;;;11.45;;
61096;SDS011;46977;50.936;6.908;2022-12-07T08:46:50;21.02;;;12.38;;
61096;SDS011;46977;50.936;6.908;2022-12-07T08:49:58;23.08;;;12.50;;
61096;SDS011;46977;50.936;6.908;2022-12-07T08:53:05;23.77;;;13.57;;
61096;SDS011;46977;50.936;6.908;2022-12-07T08:56:11;19.90;;;11.63;;
61096;SDS011;46977;50.936;6.908;2022-12-07T08:59:14;17.58;;;10.05;;
61096;SDS011;46977;50.936;6.908;2022-12-07T09:02:18;15.68;;;9.38;;
61096;SDS011;46977;50.936;6.908;2022-12-07T09:05:22;19.73;;;10.10;;
61096;SDS011;46977;50.936;6.908;2022-12-07T09:08:26;13.10;;;8.65;;
61096;SDS011;46977;50.936;6.908;2022-12-07T09:11:33;15.65;;;8.80;;
61096;SDS011;46977;50.936;6.908;2022-12-07T09:14:36;16.05;;;9.75;;
61096;SDS011;46977;50.936;6.908;2022-12-07T09:17:39;14.63;;;8.98;;
61096;SDS011;46977;50.936;6.908;2022-12-07T09:20:41;20.88;;;10.60;;
61096;SDS011;46977;50.936;6.908;2022-12-07T09:23:44;17.08;;;10.70;;
61096;SDS011;46977;50.936;6.908;2022-12-07T09:26:48;14.48;;;8.63;;
61096;SDS011;46977;50.936;6.908;2022-12-07T09:29:51;13.07;;;8.60;;
61096;SDS011;46977;50.936;6.908;2022-12-07T09:32:54;13.95;;;8.45;;
61096;SDS011;46977;50.936;6.908;2022-12-07T09:35:57;12.75;;;7.85;;
61096;SDS011;46977;50.936;6.908;2022-12-07T09:39:03;15.75;;;8.10;;
61096;SDS011;46977;50.936;6.908;2022-12-07T09:42:08;17.48;;;9.27;;
61096;SDS011;46977;50.936;6.908;2022-12-07T09:45:14;21.83;;;9.10;;
61096;SDS011;46977;50.936;6.908;2022-12-07T09:48:19;14.68;;;7.60;;
61096;SDS011;46977;50.936;6.908;2022-12-07T09:51:25;16.60;;;7.80;;
61096;SDS011;46977;50.936;6.908;2022-12-07T09:54:27;16.35;;;8.02;;
61096;SDS011;46977;50.936;6.908;2022-12-07T09:57:32;15.00;;;8.80;;
61096;SDS011;46977;50.936;6.908;2022-12-07T10:00:37;18.27;;;8.55;;
61096;SDS011;46977;50.936;6.908;2022-12-07T10:03:40;14.50;;;7.50;;
61096;SDS011;46977;50.936;6.908;2022-12-07T10:06:44;12.57;;;7.60;;
61096;SDS011;46977;50.936;6.908;2022-12-07T10:09:48;11.88;;;6.82;;
61096;SDS011;46977;50.936;6.908;2022-12-07T10:12:59;16.63;;;7.88;;
61096;SDS011;46977;50.936;6.908;2022-12-07T10:16:02;14.38;;;7.20;;
61096;SDS011;46977;50.936;6.908;2022-12-07T10:19:18;13.48;;;6.20;;
61096;SDS011;46977;50.936;6.908;2022-12-07T10:22:22;18.65;;;7.20;;
61096;SDS011;46977;50.936;6.908;2022-12-07T10:25:33;12.43;;;6.15;;
61096;SDS011;46977;50.936;6.908;2022-12-07T10:28:40;13.68;;;6.35;;
61096;SDS011;46977;50.936;6.908;2022-12-07T10:31:43;11.90;;;6.05;;
61096;SDS011;46977;50.936;6.908;2022-12-07T10:34:47;14.30;;;6.43;;
61096;SDS011;46977;50.936;6.908;2022-12-07T10:38:07;16.02;;;6.35;;
61096;SDS011;46977;50.936;6.908;2022-12-07T10:41:18;13.80;;;6.63;;
61096;SDS011;46977;50.936;6.908;2022-12-07T10:44:24;13.98;;;6.63;;
61096;SDS011;46977;50.936;6.908;2022-12-07T10:47:31;15.88;;;7.00;;
61096;SDS011;46977;50.936;6.908;2022-12-07T10:50:41;13.88;;;6.40;;
61096;SDS011;46977;50.936;6.908;2022-12-07T10:53:54;12.65;;;6.72;;
61096;SDS011;46977;50.936;6.908;2022-12-07T10:57:14;16.10;;;6.13;;
61096;SDS011;46977;50.936;6.908;2022-12-07T11:00:26;10.57;;;5.70;;
61096;SDS011;46977;50.936;6.908;2022-12-07T11:04:06;13.65;;;5.38;;
61096;SDS011;46977;50.936;6.908;2022-12-07T11:07:18;10.63;;;4.95;;
61096;SDS011;46977;50.936;6.908;2022-12-07T11:10:25;13.63;;;6.45;;
61096;SDS011;46977;50.936;6.908;2022-12-07T11:13:36;16.35;;;7.07;;
61096;SDS011;46977;50.936;6.908;2022-12-07T11:16:51;11.07;;;5.15;;
61096;SDS011;46977;50.936;6.908;2022-12-07T11:20:01;12.32;;;5.47;;
61096;SDS011;46977;50.936;6.908;2022-12-07T11:23:11;17.02;;;4.75;;
61096;SDS011;46977;50.936;6.908;2022-12-07T11:26:21;11.23;;;4.90;;
61096;SDS011;46977;50.936;6.908;2022-12-07T11:29:38;11.55;;;4.28;;
61096;SDS011;46977;50.936;6.908;2022-12-07T11:32:59;13.63;;;5.20;;
61096;SDS011;46977;50.936;6.908;2022-12-07T11:36:11;9.27;;;3.38;;
61096;SDS011;46977;50.936;6.908;2022-12-07T11:39:26;10.25;;;4.78;;
61096;SDS011;46977;50.936;6.908;2022-12-07T11:42:32;13.93;;;4.75;;
61096;SDS011;46977;50.936;6.908;2022-12-07T11:45:40;9.65;;;3.80;;
61096;SDS011;46977;50.936;6.908;2022-12-07T11:48:46;11.95;;;5.32;;
61096;SDS011;46977;50.936;6.908;2022-12-07T11:51:56;12.55;;;4.60;;
61096;SDS011;46977;50.936;6.908;2022-12-07T11:55:00;11.77;;;4.68;;
61096;SDS011;46977;50.936;6.908;2022-12-07T11:58:04;10.77;;;4.55;;
61096;SDS011;46977;50.936;6.908;2022-12-07T12:01:21;9.77;;;4.88;;
61096;SDS011;46977;50.936;6.908;2022-12-07T12:04:39;12.50;;;5.80;;
61096;SDS011;46977;50.936;6.908;2022-12-07T12:07:52;11.75;;;5.15;;
61096;SDS011;46977;50.936;6.908;2022-12-07T12:11:26;14.65;;;5.70;;
61096;SDS011;46977;50.936;6.908;2022-12-07T12:14:42;15.50;;;7.63;;
61096;SDS011;46977;50.936;6.908;2022-12-07T12:17:56;15.30;;;6.55;;
61096;SDS011;46977;50.936;6.908;2022-12-07T12:21:10;13.52;;;5.70;;
61096;SDS011;46977;50.936;6.908;2022-12-07T12:24:22;13.25;;;6.75;;
61096;SDS011;46977;50.936;6.908;2022-12-07T12:27:30;13.60;;;7.57;;
61096;SDS011;46977;50.936;6.908;2022-12-07T12:30:36;14.52;;;6.57;;
61096;SDS011;46977;50.936;6.908;2022-12-07T12:33:43;17.60;;;7.72;;
61096;SDS011;46977;50.936;6.908;2022-12-07T12:36:47;17.52;;;7.05;;
61096;SDS011;46977;50.936;6.908;2022-12-07T12:43:41;19.08;;;8.27;;
61096;SDS011;46977;50.936;6.908;2022-12-07T12:46:58;20.25;;;7.63;;
61096;SDS011;46977;50.936;6.908;2022-12-07T12:50:21;16.08;;;7.82;;
61096;SDS011;46977;50.936;6.908;2022-12-07T12:53:28;17.08;;;6.57;;
61096;SDS011;46977;50.936;6.908;2022-12-07T12:56:35;14.10;;;5.97;;
61096;SDS011;46977;50.936;6.908;2022-12-07T12:59:42;17.25;;;6.40;;
61096;SDS011;46977;50.936;6.908;2022-12-07T13:02:59;16.85;;;7.53;;
61096;SDS011;46977;50.936;6.908;2022-12-07T13:06:17;14.50;;;6.90;;
61096;SDS011;46977;50.936;6.908;2022-12-07T13:09:24;12.73;;;5.68;;
61096;SDS011;46977;50.936;6.908;2022-12-07T13:12:29;11.55;;;5.55;;
61096;SDS011;46977;50.936;6.908;2022-12-07T13:41:16;16.50;;;7.13;;
61096;SDS011;46977;50.936;6.908;2022-12-07T13:45:32;16.65;;;6.80;;
61096;SDS011;46977;50.936;6.908;2022-12-07T13:52:08;15.63;;;7.38;;
61096;SDS011;46977;50.936;6.908;2022-12-07T14:14:32;9.45;;;5.28;;
61096;SDS011;46977;50.936;6.908;2022-12-07T14:18:26;12.30;;;6.10;;
61096;SDS011;46977;50.936;6.908;2022-12-07T14:23:22;14.20;;;6.15;;
61096;SDS011;46977;50.936;6.908;2022-12-07T14:32:21;11.70;;;6.65;;
61096;SDS011;46977;50.936;6.908;2022-12-07T14:37:06;9.40;;;6.28;;
61096;SDS011;46977;50.936;6.908;2022-12-07T14:41:06;13.63;;;7.55;;
61096;SDS011;46977;50.936;6.908;2022-12-07T14:49:41;13.90;;;7.10;;
61096;SDS011;46977;50.936;6.908;2022-12-07T14:53:20;13.48;;;7.22;;
61096;SDS011;46977;50.936;6.908;2022-12-07T15:01:25;14.37;;;7.10;;
61096;SDS011;46977;50.936;6.908;2022-12-07T15:10:09;16.58;;;8.30;;
61096;SDS011;46977;50.936;6.908;2022-12-07T15:19:28;14.20;;;7.35;;
61096;SDS011;46977;50.936;6.908;2022-12-07T15:24:12;16.15;;;7.88;;
61096;SDS011;46977;50.936;6.908;2022-12-07T15:29:32;14.32;;;8.15;;
61096;SDS011;46977;50.936;6.908;2022-12-07T15:43:42;11.30;;;5.93;;
61096;SDS011;46977;50.936;6.908;2022-12-07T15:47:29;10.43;;;5.67;;
61096;SDS011;46977;50.936;6.908;2022-12-07T15:50:35;9.30;;;5.55;;
61096;SDS011;46977;50.936;6.908;2022-12-07T15:53:48;16.17;;;7.22;;
61096;SDS011;46977;50.936;6.908;2022-12-07T15:57:06;10.68;;;6.50;;
61096;SDS011;46977;50.936;6.908;2022-12-07T16:00:45;14.98;;;6.60;;
61096;SDS011;46977;50.936;6.908;2022-12-07T16:04:29;12.25;;;6.43;;
61096;SDS011;46977;50.936;6.908;2022-12-07T16:08:06;11.70;;;7.70;;
61096;SDS011;46977;50.936;6.908;2022-12-07T16:12:34;13.25;;;7.45;;
61096;SDS011;46977;50.936;6.908;2022-12-07T16:15:13;12.65;;;6.43;;
61096;SDS011;46977;50.936;6.908;2022-12-07T16:19:01;14.90;;;7.25;;
61096;SDS011;46977;50.936;6.908;2022-12-07T16:22:18;9.05;;;5.30;;
61096;SDS011;46977;50.936;6.908;2022-12-07T16:25:34;7.43;;;4.80;;
61096;SDS011;46977;50.936;6.908;2022-12-07T16:28:36;7.35;;;4.00;;
61096;SDS011;46977;50.936;6.908;2022-12-07T16:31:41;8.88;;;3.67;;
61096;SDS011;46977;50.936;6.908;2022-12-07T16:34:45;7.20;;;4.05;;
61096;SDS011;46977;50.936;6.908;2022-12-07T16:38:03;8.35;;;4.72;;
61096;SDS011;46977;50.936;6.908;2022-12-07T16:41:16;4.93;;;3.95;;
61096;SDS011;46977;50.936;6.908;2022-12-07T16:44:31;4.60;;;3.25;;
61096;SDS011;46977;50.936;6.908;2022-12-07T16:48:04;4.40;;;3.00;;
61096;SDS011;46977;50.936;6.908;2022-12-07T16:51:50;5.88;;;3.15;;
61096;SDS011;46977;50.936;6.908;2022-12-07T16:55:30;5.38;;;3.15;;
61096;SDS011;46977;50.936;6.908;2022-12-07T16:59:05;6.78;;;2.90;;
61096;SDS011;46977;50.936;6.908;2022-12-07T17:02:32;10.02;;;3.70;;
61096;SDS011;46977;50.936;6.908;2022-12-07T17:05:44;6.93;;;3.92;;
61096;SDS011;46977;50.936;6.908;2022-12-07T17:26:27;9.05;;;4.78;;
61096;SDS011;46977;50.936;6.908;2022-12-07T17:29:56;7.60;;;4.90;;
61096;SDS011;46977;50.936;6.908;2022-12-07T17:36:57;6.70;;;4.80;;
61096;SDS011;46977;50.936;6.908;2022-12-07T17:40:02;11.15;;;6.40;;
61096;SDS011;46977;50.936;6.908;2022-12-07T17:43:05;11.15;;;6.78;;
61096;SDS011;46977;50.936;6.908;2022-12-07T17:46:09;8.90;;;5.72;;
61096;SDS011;46977;50.936;6.908;2022-12-07T17:49:13;10.25;;;6.30;;
61096;SDS011;46977;50.936;6.908;2022-12-07T17:52:16;10.85;;;5.97;;
61096;SDS011;46977;50.936;6.908;2022-12-07T17:55:37;11.45;;;6.22;;
61096;SDS011;46977;50.936;6.908;2022-12-07T17:59:00;14.48;;;6.28;;
61096;SDS011;46977;50.936;6.908;2022-12-07T18:02:08;13.48;;;6.68;;
61096;SDS011;46977;50.936;6.908;2022-12-07T18:05:14;13.43;;;7.28;;
61096;SDS011;46977;50.936;6.908;2022-12-07T18:13:10;16.17;;;7.30;;
61096;SDS011;46977;50.936;6.908;2022-12-07T18:20:59;15.05;;;8.75;;
61096;SDS011;46977;50.936;6.908;2022-12-07T18:24:33;15.48;;;9.10;;
61096;SDS011;46977;50.936;6.908;2022-12-07T18:27:40;18.13;;;9.43;;
61096;SDS011;46977;50.936;6.908;2022-12-07T18:30:48;19.38;;;9.75;;
61096;SDS011;46977;50.936;6.908;2022-12-07T18:34:16;18.02;;;10.10;;
61096;SDS011;46977;50.936;6.908;2022-12-07T18:37:19;17.73;;;10.15;;
61096;SDS011;46977;50.936;6.908;2022-12-07T18:40:21;16.80;;;10.15;;
61096;SDS011;46977;50.936;6.908;2022-12-07T18:43:25;17.23;;;9.15;;
61096;SDS011;46977;50.936;6.908;2022-12-07T18:46:42;20.05;;;11.20;;
61096;SDS011;46977;50.936;6.908;2022-12-07T18:50:19;21.92;;;10.40;;
61096;SDS011;46977;50.936;6.908;2022-12-07T18:53:33;25.95;;;12.75;;
61096;SDS011;46977;50.936;6.908;2022-12-07T18:56:39;19.70;;;10.43;;
61096;SDS011;46977;50.936;6.908;2022-12-07T18:59:58;20.25;;;11.52;;
61096;SDS011;46977;50.936;6.908;2022-12-07T19:03:06;16.98;;;10.90;;
61096;SDS011;46977;50.936;6.908;2022-12-07T19:10:07;16.85;;;10.30;;
61096;SDS011;46977;50.936;6.908;2022-12-07T19:13:10;20.48;;;10.32;;
61096;SDS011;46977;50.936;6.908;2022-12-07T19:16:12;23.02;;;11.32;;
61096;SDS011;46977;50.936;6.908;2022-12-07T19:19:16;20.25;;;10.63;;
61096;SDS011;46977;50.936;6.908;2022-12-07T19:22:20;14.93;;;8.98;;
61096;SDS011;46977;50.936;6.908;2022-12-07T19:25:25;18.83;;;10.32;;
61096;SDS011;46977;50.936;6.908;2022-12-07T19:28:27;19.58;;;10.73;;
61096;SDS011;46977;50.936;6.908;2022-12-07T19:31:30;22.08;;;10.80;;
61096;SDS011;46977;50.936;6.908;2022-12-07T19:34:32;26.40;;;12.20;;
61096;SDS011;46977;50.936;6.908;2022-12-07T19:37:34;22.42;;;11.27;;
61096;SDS011;46977;50.936;6.908;2022-12-07T19:40:38;24.42;;;11.00;;
61096;SDS011;46977;50.936;6.908;2022-12-07T19:43:40;18.88;;;10.27;;
61096;SDS011;46977;50.936;6.908;2022-12-07T19:46:43;20.58;;;12.13;;
61096;SDS011;46977;50.936;6.908;2022-12-07T19:49:47;20.58;;;11.13;;
61096;SDS011;46977;50.936;6.908;2022-12-07T19:52:49;19.85;;;12.02;;
61096;SDS011;46977;50.936;6.908;2022-12-07T19:55:56;25.08;;;13.73;;
61096;SDS011;46977;50.936;6.908;2022-12-07T19:58:59;24.45;;;12.60;;
61096;SDS011;46977;50.936;6.908;2022-12-07T20:02:03;25.83;;;12.82;;
61096;SDS011;46977;50.936;6.908;2022-12-07T20:05:05;27.15;;;13.77;;
61096;SDS011;46977;50.936;6.908;2022-12-07T20:08:08;23.40;;;12.15;;
61096;SDS011;46977;50.936;6.908;2022-12-07T20:11:12;24.52;;;12.75;;
61096;SDS011;46977;50.936;6.908;2022-12-07T20:14:34;25.63;;;12.77;;
61096;SDS011;46977;50.936;6.908;2022-12-07T20:17:37;26.90;;;12.05;;
61096;SDS011;46977;50.936;6.908;2022-12-07T20:20:39;20.80;;;11.55;;
61096;SDS011;46977;50.936;6.908;2022-12-07T20:23:42;23.83;;;11.27;;
61096;SDS011;46977;50.936;6.908;2022-12-07T20:26:46;26.20;;;12.52;;
61096;SDS011;46977;50.936;6.908;2022-12-07T20:29:49;26.60;;;12.82;;
61096;SDS011;46977;50.936;6.908;2022-12-07T20:32:52;24.70;;;13.05;;
61096;SDS011;46977;50.936;6.908;2022-12-07T20:35:57;22.92;;;11.93;;
61096;SDS011;46977;50.936;6.908;2022-12-07T20:39:00;27.95;;;12.95;;
61096;SDS011;46977;50.936;6.908;2022-12-07T20:42:06;21.77;;;11.43;;
61096;SDS011;46977;50.936;6.908;2022-12-07T20:45:28;23.30;;;12.95;;
61096;SDS011;46977;50.936;6.908;2022-12-07T20:48:30;25.38;;;12.18;;
61096;SDS011;46977;50.936;6.908;2022-12-07T20:51:32;24.10;;;12.25;;
61096;SDS011;46977;50.936;6.908;2022-12-07T20:54:35;24.50;;;12.30;;
61096;SDS011;46977;50.936;6.908;2022-12-07T20:57:39;22.75;;;11.88;;